sensor_id;sensor_type;location;lat;lon;timestamp;P1;durP1;ratioP1;P2;durP2;ratioP2
43345;SDS011;28937;51.160;4.146;2023-01-15T00:01:39;7.60;;;1.42;;
43345;SDS011;28937;51.160;4.146;2023-01-15T00:04:06;5.10;;;0.98;;
43345;SDS011;28937;51.160;4.146;2023-01-15T00:06:36;5.40;;;1.13;;
43345;SDS011;28937;51.160;4.146;2023-01-15T00:09:04;5.53;;;1.02;;
43345;SDS011;28937;51.160;4.146;2023-01-15T00:11:30;4.35;;;0.95;;
43345;SDS011;28937;51.160;4.146;2023-01-15T00:13:56;5.95;;;1.30;;
43345;SDS011;28937;51.160;4.146;2023-01-15T00:16:22;5.50;;;1.40;;
43345;SDS011;28937;51.160;4.146;2023-01-15T00:18:52;5.00;;;0.98;;
43345;SDS011;28937;51.160;4.146;2023-01-15T00:21:22;6.93;;;1.42;;
43345;SDS011;28937;51.160;4.146;2023-01-15T00:23:49;5.50;;;1.05;;
43345;SDS011;28937;51.160;4.146;2023-01-15T00:26:33;9.25;;;1.77;;
43345;SDS011;28937;51.160;4.146;2023-01-15T00:29:18;6.53;;;1.20;;
43345;SDS011;28937;51.160;4.146;2023-01-15T00:31:59;3.33;;;1.00;;
43345;SDS011;28937;51.160;4.146;2023-01-15T00:34:27;5.55;;;1.20;;
43345;SDS011;28937;51.160;4.146;2023-01-15T00:36:53;5.32;;;0.95;;
43345;SDS011;28937;51.160;4.146;2023-01-15T00:39:19;7.47;;;1.45;;
43345;SDS011;28937;51.160;4.146;2023-01-15T00:41:45;6.85;;;1.27;;
43345;SDS011;28937;51.160;4.146;2023-01-15T00:44:11;8.60;;;1.30;;
43345;SDS011;28937;51.160;4.146;2023-01-15T00:46:36;9.20;;;1.15;;
43345;SDS011;28937;51.160;4.146;2023-01-15T00:49:02;8.68;;;1.17;;
43345;SDS011;28937;51.160;4.146;2023-01-15T00:51:29;9.10;;;1.13;;
43345;SDS011;28937;51.160;4.146;2023-01-15T00:53:54;4.93;;;1.10;;
43345;SDS011;28937;51.160;4.146;2023-01-15T00:56:20;5.28;;;1.15;;
43345;SDS011;28937;51.160;4.146;2023-01-15T00:58:45;7.75;;;1.27;;
43345;SDS011;28937;51.160;4.146;2023-01-15T01:01:12;3.60;;;0.75;;
43345;SDS011;28937;51.160;4.146;2023-01-15T01:03:38;11.05;;;1.67;;
43345;SDS011;28937;51.160;4.146;2023-01-15T01:06:03;11.48;;;1.70;;
43345;SDS011;28937;51.160;4.146;2023-01-15T01:08:29;5.22;;;1.30;;
43345;SDS011;28937;51.160;4.146;2023-01-15T01:11:02;7.47;;;1.23;;
43345;SDS011;28937;51.160;4.146;2023-01-15T01:13:29;7.00;;;1.45;;
43345;SDS011;28937;51.160;4.146;2023-01-15T01:15:55;7.28;;;1.42;;
43345;SDS011;28937;51.160;4.146;2023-01-15T01:18:21;9.07;;;1.42;;
43345;SDS011;28937;51.160;4.146;2023-01-15T01:20:46;4.53;;;0.85;;
43345;SDS011;28937;51.160;4.146;2023-01-15T01:23:12;5.80;;;1.25;;
43345;SDS011;28937;51.160;4.146;2023-01-15T01:25:37;5.88;;;1.05;;
43345;SDS011;28937;51.160;4.146;2023-01-15T01:28:03;2.72;;;0.95;;
43345;SDS011;28937;51.160;4.146;2023-01-15T01:30:28;9.98;;;1.58;;
43345;SDS011;28937;51.160;4.146;2023-01-15T01:32:54;4.80;;;1.25;;
43345;SDS011;28937;51.160;4.146;2023-01-15T01:35:19;10.07;;;1.60;;
43345;SDS011;28937;51.160;4.146;2023-01-15T01:37:49;7.05;;;1.30;;
43345;SDS011;28937;51.160;4.146;2023-01-15T01:40:15;6.65;;;1.35;;
43345;SDS011;28937;51.160;4.146;2023-01-15T01:42:41;8.13;;;1.77;;
43345;SDS011;28937;51.160;4.146;2023-01-15T01:45:30;6.10;;;1.40;;
43345;SDS011;28937;51.160;4.146;2023-01-15T01:47:55;4.57;;;1.20;;
43345;SDS011;28937;51.160;4.146;2023-01-15T01:50:25;4.28;;;1.10;;
43345;SDS011;28937;51.160;4.146;2023-01-15T01:52:55;7.82;;;1.67;;
43345;SDS011;28937;51.160;4.146;2023-01-15T01:55:32;9.05;;;1.67;;
43345;SDS011;28937;51.160;4.146;2023-01-15T01:57:59;7.95;;;1.65;;
43345;SDS011;28937;51.160;4.146;2023-01-15T02:00:28;6.63;;;1.58;;
43345;SDS011;28937;51.160;4.146;2023-01-15T02:02:55;7.97;;;1.27;;
43345;SDS011;28937;51.160;4.146;2023-01-15T02:05:24;7.65;;;1.38;;
43345;SDS011;28937;51.160;4.146;2023-01-15T02:07:54;8.32;;;1.63;;
43345;SDS011;28937;51.160;4.146;2023-01-15T02:10:20;7.32;;;1.20;;
43345;SDS011;28937;51.160;4.146;2023-01-15T02:16:06;5.15;;;1.13;;
43345;SDS011;28937;51.160;4.146;2023-01-15T02:18:32;9.05;;;1.48;;
43345;SDS011;28937;51.160;4.146;2023-01-15T02:24:09;8.90;;;1.33;;
43345;SDS011;28937;51.160;4.146;2023-01-15T02:27:02;6.15;;;1.45;;
43345;SDS011;28937;51.160;4.146;2023-01-15T02:29:53;11.52;;;1.45;;
43345;SDS011;28937;51.160;4.146;2023-01-15T02:32:30;11.13;;;1.90;;
43345;SDS011;28937;51.160;4.146;2023-01-15T02:35:06;6.20;;;1.45;;
43345;SDS011;28937;51.160;4.146;2023-01-15T02:37:42;10.85;;;1.77;;
43345;SDS011;28937;51.160;4.146;2023-01-15T02:40:12;9.00;;;1.65;;
43345;SDS011;28937;51.160;4.146;2023-01-15T02:42:40;9.20;;;1.33;;
43345;SDS011;28937;51.160;4.146;2023-01-15T02:45:09;9.10;;;1.85;;
43345;SDS011;28937;51.160;4.146;2023-01-15T02:47:38;8.38;;;1.83;;
43345;SDS011;28937;51.160;4.146;2023-01-15T02:50:08;7.95;;;1.70;;
43345;SDS011;28937;51.160;4.146;2023-01-15T02:52:39;6.60;;;1.55;;
43345;SDS011;28937;51.160;4.146;2023-01-15T02:55:09;7.97;;;1.48;;
43345;SDS011;28937;51.160;4.146;2023-01-15T02:57:38;8.93;;;1.52;;
43345;SDS011;28937;51.160;4.146;2023-01-15T03:00:10;5.23;;;1.20;;
43345;SDS011;28937;51.160;4.146;2023-01-15T03:02:41;8.10;;;1.60;;
43345;SDS011;28937;51.160;4.146;2023-01-15T03:05:10;7.40;;;1.40;;
43345;SDS011;28937;51.160;4.146;2023-01-15T03:10:16;10.95;;;1.58;;
43345;SDS011;28937;51.160;4.146;2023-01-15T03:12:47;9.27;;;1.60;;
43345;SDS011;28937;51.160;4.146;2023-01-15T03:16:12;9.73;;;1.95;;
43345;SDS011;28937;51.160;4.146;2023-01-15T03:18:44;7.82;;;1.13;;
43345;SDS011;28937;51.160;4.146;2023-01-15T03:21:20;8.30;;;1.48;;
43345;SDS011;28937;51.160;4.146;2023-01-15T03:23:52;10.27;;;1.90;;
43345;SDS011;28937;51.160;4.146;2023-01-15T03:26:20;9.77;;;1.70;;
43345;SDS011;28937;51.160;4.146;2023-01-15T03:28:46;11.73;;;1.90;;
43345;SDS011;28937;51.160;4.146;2023-01-15T03:31:13;10.77;;;2.17;;
43345;SDS011;28937;51.160;4.146;2023-01-15T03:33:40;13.80;;;2.25;;
43345;SDS011;28937;51.160;4.146;2023-01-15T03:36:06;9.75;;;1.85;;
43345;SDS011;28937;51.160;4.146;2023-01-15T03:38:33;11.88;;;1.70;;
43345;SDS011;28937;51.160;4.146;2023-01-15T03:46:32;13.57;;;1.58;;
43345;SDS011;28937;51.160;4.146;2023-01-15T03:51:42;10.00;;;1.98;;
43345;SDS011;28937;51.160;4.146;2023-01-15T03:54:10;7.38;;;1.52;;
43345;SDS011;28937;51.160;4.146;2023-01-15T03:56:49;9.07;;;2.00;;
43345;SDS011;28937;51.160;4.146;2023-01-15T03:59:44;9.98;;;1.58;;
43345;SDS011;28937;51.160;4.146;2023-01-15T04:02:12;6.72;;;1.30;;
43345;SDS011;28937;51.160;4.146;2023-01-15T04:04:39;10.82;;;1.77;;
43345;SDS011;28937;51.160;4.146;2023-01-15T04:07:05;6.78;;;1.77;;
43345;SDS011;28937;51.160;4.146;2023-01-15T04:09:31;4.13;;;1.20;;
43345;SDS011;28937;51.160;4.146;2023-01-15T04:12:00;7.70;;;1.70;;
43345;SDS011;28937;51.160;4.146;2023-01-15T04:14:27;9.95;;;1.98;;
43345;SDS011;28937;51.160;4.146;2023-01-15T04:16:54;8.63;;;1.75;;
43345;SDS011;28937;51.160;4.146;2023-01-15T04:19:19;10.68;;;1.98;;
43345;SDS011;28937;51.160;4.146;2023-01-15T04:21:45;9.00;;;1.90;;
43345;SDS011;28937;51.160;4.146;2023-01-15T04:24:10;8.05;;;1.63;;
43345;SDS011;28937;51.160;4.146;2023-01-15T04:26:36;9.95;;;1.75;;
43345;SDS011;28937;51.160;4.146;2023-01-15T04:29:02;8.98;;;1.52;;
43345;SDS011;28937;51.160;4.146;2023-01-15T04:31:27;8.52;;;1.98;;
43345;SDS011;28937;51.160;4.146;2023-01-15T04:33:53;6.75;;;1.50;;
43345;SDS011;28937;51.160;4.146;2023-01-15T04:36:18;5.95;;;1.35;;
43345;SDS011;28937;51.160;4.146;2023-01-15T04:38:44;7.80;;;1.77;;
43345;SDS011;28937;51.160;4.146;2023-01-15T04:41:09;4.10;;;0.98;;
43345;SDS011;28937;51.160;4.146;2023-01-15T04:43:53;5.28;;;1.63;;
43345;SDS011;28937;51.160;4.146;2023-01-15T04:46:32;5.95;;;1.35;;
43345;SDS011;28937;51.160;4.146;2023-01-15T04:49:02;8.95;;;1.50;;
43345;SDS011;28937;51.160;4.146;2023-01-15T04:51:29;7.70;;;1.17;;
43345;SDS011;28937;51.160;4.146;2023-01-15T04:53:55;5.70;;;0.93;;
43345;SDS011;28937;51.160;4.146;2023-01-15T04:56:20;5.78;;;1.52;;
43345;SDS011;28937;51.160;4.146;2023-01-15T04:58:46;6.40;;;1.00;;
43345;SDS011;28937;51.160;4.146;2023-01-15T05:01:13;6.65;;;1.27;;
43345;SDS011;28937;51.160;4.146;2023-01-15T05:03:40;6.60;;;1.50;;
43345;SDS011;28937;51.160;4.146;2023-01-15T05:06:06;7.32;;;1.48;;
43345;SDS011;28937;51.160;4.146;2023-01-15T05:08:32;7.82;;;1.60;;
43345;SDS011;28937;51.160;4.146;2023-01-15T05:11:01;6.65;;;1.25;;
43345;SDS011;28937;51.160;4.146;2023-01-15T05:13:29;6.95;;;1.25;;
43345;SDS011;28937;51.160;4.146;2023-01-15T05:16:06;5.88;;;1.65;;
43345;SDS011;28937;51.160;4.146;2023-01-15T05:18:37;7.00;;;1.30;;
43345;SDS011;28937;51.160;4.146;2023-01-15T05:21:03;9.32;;;1.75;;
43345;SDS011;28937;51.160;4.146;2023-01-15T05:23:29;7.85;;;1.23;;
43345;SDS011;28937;51.160;4.146;2023-01-15T05:25:54;5.90;;;1.52;;
43345;SDS011;28937;51.160;4.146;2023-01-15T05:28:20;4.90;;;1.15;;
43345;SDS011;28937;51.160;4.146;2023-01-15T05:30:45;7.50;;;1.38;;
43345;SDS011;28937;51.160;4.146;2023-01-15T05:33:11;6.45;;;1.52;;
43345;SDS011;28937;51.160;4.146;2023-01-15T05:35:36;6.18;;;1.50;;
43345;SDS011;28937;51.160;4.146;2023-01-15T05:38:02;5.47;;;1.33;;
43345;SDS011;28937;51.160;4.146;2023-01-15T05:40:30;7.07;;;1.58;;
43345;SDS011;28937;51.160;4.146;2023-01-15T05:42:56;6.55;;;1.20;;
43345;SDS011;28937;51.160;4.146;2023-01-15T05:45:21;5.60;;;1.00;;
43345;SDS011;28937;51.160;4.146;2023-01-15T05:47:47;4.55;;;1.33;;
43345;SDS011;28937;51.160;4.146;2023-01-15T05:50:12;8.15;;;1.50;;
43345;SDS011;28937;51.160;4.146;2023-01-15T05:52:38;5.53;;;1.25;;
43345;SDS011;28937;51.160;4.146;2023-01-15T05:55:03;6.65;;;1.40;;
43345;SDS011;28937;51.160;4.146;2023-01-15T05:57:30;6.53;;;1.48;;
43345;SDS011;28937;51.160;4.146;2023-01-15T05:59:57;4.45;;;1.10;;
43345;SDS011;28937;51.160;4.146;2023-01-15T06:02:22;5.55;;;1.05;;
43345;SDS011;28937;51.160;4.146;2023-01-15T06:04:48;6.10;;;1.10;;
43345;SDS011;28937;51.160;4.146;2023-01-15T06:07:13;3.80;;;1.10;;
43345;SDS011;28937;51.160;4.146;2023-01-15T06:09:41;8.25;;;1.45;;
43345;SDS011;28937;51.160;4.146;2023-01-15T06:12:07;6.32;;;1.33;;
43345;SDS011;28937;51.160;4.146;2023-01-15T06:14:33;5.53;;;0.98;;
43345;SDS011;28937;51.160;4.146;2023-01-15T06:16:58;6.80;;;1.30;;
43345;SDS011;28937;51.160;4.146;2023-01-15T06:19:24;7.90;;;1.38;;
43345;SDS011;28937;51.160;4.146;2023-01-15T06:21:50;4.57;;;0.98;;
43345;SDS011;28937;51.160;4.146;2023-01-15T06:24:15;6.50;;;1.10;;
43345;SDS011;28937;51.160;4.146;2023-01-15T06:26:41;4.80;;;1.05;;
43345;SDS011;28937;51.160;4.146;2023-01-15T06:29:07;6.68;;;1.08;;
43345;SDS011;28937;51.160;4.146;2023-01-15T06:31:33;7.18;;;1.40;;
43345;SDS011;28937;51.160;4.146;2023-01-15T06:33:58;5.85;;;0.85;;
43345;SDS011;28937;51.160;4.146;2023-01-15T06:36:24;5.57;;;0.85;;
43345;SDS011;28937;51.160;4.146;2023-01-15T06:38:51;4.85;;;0.80;;
43345;SDS011;28937;51.160;4.146;2023-01-15T06:41:24;4.40;;;0.80;;
43345;SDS011;28937;51.160;4.146;2023-01-15T06:44:12;4.75;;;0.98;;
43345;SDS011;28937;51.160;4.146;2023-01-15T06:47:01;4.57;;;0.98;;
43345;SDS011;28937;51.160;4.146;2023-01-15T06:49:46;3.50;;;0.70;;
43345;SDS011;28937;51.160;4.146;2023-01-15T06:52:12;4.50;;;1.08;;
43345;SDS011;28937;51.160;4.146;2023-01-15T06:54:38;4.28;;;1.05;;
43345;SDS011;28937;51.160;4.146;2023-01-15T06:57:03;6.03;;;1.02;;
43345;SDS011;28937;51.160;4.146;2023-01-15T06:59:29;3.53;;;1.00;;
43345;SDS011;28937;51.160;4.146;2023-01-15T07:01:55;5.25;;;1.20;;
43345;SDS011;28937;51.160;4.146;2023-01-15T07:04:21;4.90;;;1.20;;
43345;SDS011;28937;51.160;4.146;2023-01-15T07:06:46;6.70;;;1.42;;
43345;SDS011;28937;51.160;4.146;2023-01-15T07:09:12;4.82;;;1.08;;
43345;SDS011;28937;51.160;4.146;2023-01-15T07:11:38;7.88;;;1.00;;
43345;SDS011;28937;51.160;4.146;2023-01-15T07:14:24;5.63;;;1.10;;
43345;SDS011;28937;51.160;4.146;2023-01-15T07:16:52;5.13;;;0.90;;
43345;SDS011;28937;51.160;4.146;2023-01-15T07:19:18;5.63;;;1.20;;
43345;SDS011;28937;51.160;4.146;2023-01-15T07:21:44;2.95;;;0.70;;
43345;SDS011;28937;51.160;4.146;2023-01-15T07:24:10;7.05;;;1.02;;
43345;SDS011;28937;51.160;4.146;2023-01-15T07:26:36;5.18;;;1.25;;
43345;SDS011;28937;51.160;4.146;2023-01-15T07:29:02;9.63;;;2.13;;
43345;SDS011;28937;51.160;4.146;2023-01-15T07:31:28;5.55;;;1.15;;
43345;SDS011;28937;51.160;4.146;2023-01-15T07:33:54;4.53;;;0.90;;
43345;SDS011;28937;51.160;4.146;2023-01-15T07:36:21;9.52;;;1.42;;
43345;SDS011;28937;51.160;4.146;2023-01-15T07:38:46;6.88;;;1.45;;
43345;SDS011;28937;51.160;4.146;2023-01-15T07:41:12;5.45;;;1.10;;
43345;SDS011;28937;51.160;4.146;2023-01-15T07:43:56;4.32;;;0.90;;
43345;SDS011;28937;51.160;4.146;2023-01-15T07:46:40;4.00;;;1.13;;
43345;SDS011;28937;51.160;4.146;2023-01-15T07:49:25;4.68;;;1.08;;
43345;SDS011;28937;51.160;4.146;2023-01-15T07:52:09;4.28;;;0.80;;
43345;SDS011;28937;51.160;4.146;2023-01-15T07:54:35;6.75;;;1.55;;
43345;SDS011;28937;51.160;4.146;2023-01-15T07:57:01;7.95;;;1.48;;
43345;SDS011;28937;51.160;4.146;2023-01-15T07:59:27;7.38;;;1.15;;
43345;SDS011;28937;51.160;4.146;2023-01-15T08:01:53;8.25;;;1.25;;
43345;SDS011;28937;51.160;4.146;2023-01-15T08:04:19;4.70;;;0.98;;
43345;SDS011;28937;51.160;4.146;2023-01-15T08:06:44;5.82;;;1.40;;
43345;SDS011;28937;51.160;4.146;2023-01-15T08:09:10;5.18;;;1.10;;
43345;SDS011;28937;51.160;4.146;2023-01-15T08:11:36;4.95;;;0.85;;
43345;SDS011;28937;51.160;4.146;2023-01-15T08:14:20;5.43;;;1.27;;
43345;SDS011;28937;51.160;4.146;2023-01-15T08:17:04;9.10;;;1.20;;
43345;SDS011;28937;51.160;4.146;2023-01-15T08:19:30;5.78;;;0.98;;
43345;SDS011;28937;51.160;4.146;2023-01-15T08:21:56;7.68;;;1.25;;
43345;SDS011;28937;51.160;4.146;2023-01-15T08:24:22;6.55;;;1.35;;
43345;SDS011;28937;51.160;4.146;2023-01-15T08:26:48;8.32;;;1.35;;
43345;SDS011;28937;51.160;4.146;2023-01-15T08:29:14;6.45;;;1.50;;
43345;SDS011;28937;51.160;4.146;2023-01-15T08:31:40;10.95;;;1.48;;
43345;SDS011;28937;51.160;4.146;2023-01-15T08:34:06;7.10;;;1.23;;
43345;SDS011;28937;51.160;4.146;2023-01-15T08:36:32;7.78;;;1.73;;
43345;SDS011;28937;51.160;4.146;2023-01-15T08:38:58;7.65;;;1.45;;
43345;SDS011;28937;51.160;4.146;2023-01-15T08:41:23;9.88;;;1.63;;
43345;SDS011;28937;51.160;4.146;2023-01-15T08:43:49;8.63;;;1.95;;
43345;SDS011;28937;51.160;4.146;2023-01-15T08:46:15;8.98;;;2.20;;
43345;SDS011;28937;51.160;4.146;2023-01-15T08:48:40;11.40;;;3.13;;
43345;SDS011;28937;51.160;4.146;2023-01-15T08:51:07;9.13;;;2.70;;
43345;SDS011;28937;51.160;4.146;2023-01-15T08:53:34;15.65;;;3.15;;
43345;SDS011;28937;51.160;4.146;2023-01-15T08:56:00;11.07;;;2.78;;
43345;SDS011;28937;51.160;4.146;2023-01-15T08:58:29;11.45;;;2.80;;
43345;SDS011;28937;51.160;4.146;2023-01-15T09:01:02;10.95;;;2.40;;
43345;SDS011;28937;51.160;4.146;2023-01-15T09:03:32;11.85;;;2.85;;
43345;SDS011;28937;51.160;4.146;2023-01-15T09:05:58;18.85;;;2.90;;
43345;SDS011;28937;51.160;4.146;2023-01-15T09:08:25;11.35;;;2.58;;
43345;SDS011;28937;51.160;4.146;2023-01-15T09:10:55;14.98;;;2.10;;
43345;SDS011;28937;51.160;4.146;2023-01-15T09:13:22;18.10;;;2.17;;
43345;SDS011;28937;51.160;4.146;2023-01-15T09:15:48;10.32;;;1.90;;
43345;SDS011;28937;51.160;4.146;2023-01-15T09:18:14;10.57;;;1.95;;
43345;SDS011;28937;51.160;4.146;2023-01-15T09:20:43;10.90;;;1.65;;
43345;SDS011;28937;51.160;4.146;2023-01-15T09:23:12;11.65;;;1.98;;
43345;SDS011;28937;51.160;4.146;2023-01-15T09:25:38;7.90;;;1.60;;
43345;SDS011;28937;51.160;4.146;2023-01-15T09:28:04;10.65;;;1.90;;
43345;SDS011;28937;51.160;4.146;2023-01-15T09:30:29;12.20;;;1.98;;
43345;SDS011;28937;51.160;4.146;2023-01-15T09:32:55;12.43;;;1.60;;
43345;SDS011;28937;51.160;4.146;2023-01-15T09:35:21;12.43;;;1.60;;
43345;SDS011;28937;51.160;4.146;2023-01-15T09:37:53;10.95;;;2.33;;
43345;SDS011;28937;51.160;4.146;2023-01-15T09:40:21;9.38;;;2.03;;
43345;SDS011;28937;51.160;4.146;2023-01-15T09:42:51;8.82;;;1.33;;
43345;SDS011;28937;51.160;4.146;2023-01-15T09:45:29;11.43;;;2.08;;
43345;SDS011;28937;51.160;4.146;2023-01-15T09:53:39;8.77;;;1.50;;
43345;SDS011;28937;51.160;4.146;2023-01-15T09:56:21;6.65;;;1.30;;
43345;SDS011;28937;51.160;4.146;2023-01-15T09:58:51;12.88;;;1.63;;
43345;SDS011;28937;51.160;4.146;2023-01-15T10:01:18;6.68;;;1.38;;
43345;SDS011;28937;51.160;4.146;2023-01-15T10:03:51;9.32;;;1.35;;
43345;SDS011;28937;51.160;4.146;2023-01-15T10:06:26;3.88;;;1.20;;
43345;SDS011;28937;51.160;4.146;2023-01-15T10:09:13;4.93;;;1.35;;
43345;SDS011;28937;51.160;4.146;2023-01-15T10:14:42;9.52;;;1.45;;
43345;SDS011;28937;51.160;4.146;2023-01-15T10:17:35;7.40;;;1.13;;
43345;SDS011;28937;51.160;4.146;2023-01-15T10:20:11;6.00;;;1.10;;
43345;SDS011;28937;51.160;4.146;2023-01-15T10:25:14;3.50;;;0.77;;
43345;SDS011;28937;51.160;4.146;2023-01-15T10:27:44;3.08;;;0.70;;
43345;SDS011;28937;51.160;4.146;2023-01-15T10:32:51;2.97;;;0.60;;
43345;SDS011;28937;51.160;4.146;2023-01-15T10:35:43;2.38;;;0.60;;
43345;SDS011;28937;51.160;4.146;2023-01-15T10:45:56;6.43;;;0.68;;
43345;SDS011;28937;51.160;4.146;2023-01-15T10:50:59;7.20;;;0.85;;
43345;SDS011;28937;51.160;4.146;2023-01-15T10:56:04;16.17;;;1.30;;
43345;SDS011;28937;51.160;4.146;2023-01-15T11:01:35;9.20;;;1.45;;
43345;SDS011;28937;51.160;4.146;2023-01-15T11:04:02;9.70;;;1.50;;
43345;SDS011;28937;51.160;4.146;2023-01-15T11:06:29;4.85;;;1.20;;
43345;SDS011;28937;51.160;4.146;2023-01-15T11:08:57;6.63;;;1.15;;
43345;SDS011;28937;51.160;4.146;2023-01-15T11:14:42;7.57;;;1.25;;
43345;SDS011;28937;51.160;4.146;2023-01-15T11:17:29;6.68;;;1.27;;
43345;SDS011;28937;51.160;4.146;2023-01-15T11:20:29;9.13;;;0.90;;
43345;SDS011;28937;51.160;4.146;2023-01-15T11:23:04;8.98;;;1.27;;
43345;SDS011;28937;51.160;4.146;2023-01-15T11:25:32;6.07;;;1.17;;
43345;SDS011;28937;51.160;4.146;2023-01-15T11:28:06;11.35;;;1.48;;
43345;SDS011;28937;51.160;4.146;2023-01-15T11:30:34;4.63;;;1.08;;
43345;SDS011;28937;51.160;4.146;2023-01-15T11:33:02;7.13;;;0.93;;
43345;SDS011;28937;51.160;4.146;2023-01-15T11:35:30;8.65;;;1.48;;
43345;SDS011;28937;51.160;4.146;2023-01-15T11:38:01;8.38;;;1.33;;
43345;SDS011;28937;51.160;4.146;2023-01-15T11:40:28;5.93;;;1.38;;
43345;SDS011;28937;51.160;4.146;2023-01-15T11:42:54;8.05;;;1.58;;
43345;SDS011;28937;51.160;4.146;2023-01-15T11:45:45;10.18;;;1.48;;
43345;SDS011;28937;51.160;4.146;2023-01-15T11:48:41;6.53;;;1.00;;
43345;SDS011;28937;51.160;4.146;2023-01-15T11:51:27;5.93;;;1.20;;
43345;SDS011;28937;51.160;4.146;2023-01-15T11:53:56;4.97;;;1.05;;
43345;SDS011;28937;51.160;4.146;2023-01-15T11:56:26;5.93;;;1.25;;
43345;SDS011;28937;51.160;4.146;2023-01-15T11:58:55;8.88;;;0.88;;
43345;SDS011;28937;51.160;4.146;2023-01-15T12:01:25;5.47;;;0.90;;
43345;SDS011;28937;51.160;4.146;2023-01-15T12:04:02;5.05;;;1.10;;
43345;SDS011;28937;51.160;4.146;2023-01-15T12:06:30;6.13;;;1.20;;
43345;SDS011;28937;51.160;4.146;2023-01-15T12:11:45;6.18;;;1.17;;
43345;SDS011;28937;51.160;4.146;2023-01-15T12:36:30;11.80;;;3.10;;
43345;SDS011;28937;51.160;4.146;2023-01-15T12:41:55;10.73;;;2.78;;
43345;SDS011;28937;51.160;4.146;2023-01-15T13:02:08;6.97;;;1.73;;
43345;SDS011;28937;51.160;4.146;2023-01-15T13:04:19;8.55;;;2.10;;
43345;SDS011;28937;51.160;4.146;2023-01-15T13:07:00;10.80;;;2.05;;
43345;SDS011;28937;51.160;4.146;2023-01-15T13:12:17;7.93;;;1.83;;
43345;SDS011;28937;51.160;4.146;2023-01-15T13:14:43;10.63;;;1.50;;
43345;SDS011;28937;51.160;4.146;2023-01-15T13:22:28;5.95;;;1.27;;
43345;SDS011;28937;51.160;4.146;2023-01-15T13:36:14;7.40;;;1.65;;
43345;SDS011;28937;51.160;4.146;2023-01-15T13:38:44;7.72;;;1.10;;
43345;SDS011;28937;51.160;4.146;2023-01-15T13:41:18;5.60;;;0.93;;
43345;SDS011;28937;51.160;4.146;2023-01-15T13:44:05;8.00;;;1.55;;
43345;SDS011;28937;51.160;4.146;2023-01-15T13:46:41;6.93;;;1.70;;
43345;SDS011;28937;51.160;4.146;2023-01-15T13:49:18;7.72;;;1.17;;
43345;SDS011;28937;51.160;4.146;2023-01-15T13:51:49;6.75;;;0.70;;
43345;SDS011;28937;51.160;4.146;2023-01-15T13:54:16;5.85;;;0.88;;
43345;SDS011;28937;51.160;4.146;2023-01-15T13:56:44;8.07;;;1.08;;
43345;SDS011;28937;51.160;4.146;2023-01-15T14:02:39;4.30;;;0.93;;
43345;SDS011;28937;51.160;4.146;2023-01-15T14:08:01;5.93;;;0.70;;
43345;SDS011;28937;51.160;4.146;2023-01-15T14:10:38;5.35;;;0.60;;
43345;SDS011;28937;51.160;4.146;2023-01-15T14:16:14;5.05;;;0.60;;
43345;SDS011;28937;51.160;4.146;2023-01-15T14:34:52;4.07;;;0.65;;
43345;SDS011;28937;51.160;4.146;2023-01-15T14:37:25;2.88;;;0.55;;
43345;SDS011;28937;51.160;4.146;2023-01-15T14:39:56;6.15;;;0.80;;
43345;SDS011;28937;51.160;4.146;2023-01-15T14:42:31;3.45;;;0.75;;
43345;SDS011;28937;51.160;4.146;2023-01-15T14:48:00;2.83;;;1.07;;
43345;SDS011;28937;51.160;4.146;2023-01-15T14:55:48;6.88;;;1.05;;
43345;SDS011;28937;51.160;4.146;2023-01-15T14:58:35;2.25;;;0.70;;
43345;SDS011;28937;51.160;4.146;2023-01-15T15:01:20;5.05;;;0.75;;
43345;SDS011;28937;51.160;4.146;2023-01-15T15:12:19;5.13;;;0.70;;
43345;SDS011;28937;51.160;4.146;2023-01-15T15:18:28;1.45;;;0.50;;
43345;SDS011;28937;51.160;4.146;2023-01-15T15:26:30;3.70;;;0.52;;
43345;SDS011;28937;51.160;4.146;2023-01-15T15:28:58;4.15;;;0.50;;
43345;SDS011;28937;51.160;4.146;2023-01-15T15:31:25;4.47;;;1.10;;
43345;SDS011;28937;51.160;4.146;2023-01-15T15:33:53;3.03;;;0.70;;
43345;SDS011;28937;51.160;4.146;2023-01-15T15:36:20;2.42;;;0.52;;
43345;SDS011;28937;51.160;4.146;2023-01-15T15:38:50;3.20;;;0.57;;
43345;SDS011;28937;51.160;4.146;2023-01-15T15:41:21;2.80;;;0.60;;
43345;SDS011;28937;51.160;4.146;2023-01-15T15:44:14;4.88;;;0.68;;
43345;SDS011;28937;51.160;4.146;2023-01-15T15:47:16;2.45;;;0.68;;
43345;SDS011;28937;51.160;4.146;2023-01-15T15:50:01;1.45;;;0.30;;
43345;SDS011;28937;51.160;4.146;2023-01-15T15:52:27;2.67;;;0.50;;
43345;SDS011;28937;51.160;4.146;2023-01-15T15:54:59;2.78;;;0.52;;
43345;SDS011;28937;51.160;4.146;2023-01-15T15:57:30;5.10;;;0.80;;
43345;SDS011;28937;51.160;4.146;2023-01-15T15:59:57;7.20;;;1.17;;
43345;SDS011;28937;51.160;4.146;2023-01-15T16:04:55;2.83;;;0.68;;
43345;SDS011;28937;51.160;4.146;2023-01-15T16:07:25;1.73;;;0.60;;
43345;SDS011;28937;51.160;4.146;2023-01-15T16:09:55;1.90;;;0.52;;
43345;SDS011;28937;51.160;4.146;2023-01-15T16:12:25;1.80;;;0.38;;
43345;SDS011;28937;51.160;4.146;2023-01-15T16:14:55;2.38;;;0.50;;
43345;SDS011;28937;51.160;4.146;2023-01-15T16:17:21;4.18;;;0.60;;
43345;SDS011;28937;51.160;4.146;2023-01-15T16:19:52;3.53;;;0.70;;
43345;SDS011;28937;51.160;4.146;2023-01-15T16:22:21;1.80;;;0.95;;
43345;SDS011;28937;51.160;4.146;2023-01-15T16:24:56;2.75;;;0.70;;
43345;SDS011;28937;51.160;4.146;2023-01-15T16:27:25;3.65;;;0.80;;
43345;SDS011;28937;51.160;4.146;2023-01-15T16:29:55;2.60;;;0.73;;
43345;SDS011;28937;51.160;4.146;2023-01-15T16:32:26;2.95;;;0.77;;
43345;SDS011;28937;51.160;4.146;2023-01-15T16:34:59;3.00;;;0.73;;
43345;SDS011;28937;51.160;4.146;2023-01-15T16:37:29;3.20;;;1.23;;
43345;SDS011;28937;51.160;4.146;2023-01-15T16:39:56;2.60;;;1.02;;
43345;SDS011;28937;51.160;4.146;2023-01-15T16:42:37;2.47;;;1.15;;
43345;SDS011;28937;51.160;4.146;2023-01-15T16:45:25;7.80;;;0.50;;
43345;SDS011;28937;51.160;4.146;2023-01-15T16:50:32;2.60;;;0.80;;
43345;SDS011;28937;51.160;4.146;2023-01-15T16:53:00;2.40;;;0.65;;
43345;SDS011;28937;51.160;4.146;2023-01-15T16:58:19;2.33;;;0.80;;
43345;SDS011;28937;51.160;4.146;2023-01-15T17:00:55;4.18;;;1.10;;
43345;SDS011;28937;51.160;4.146;2023-01-15T17:03:21;2.63;;;0.90;;
43345;SDS011;28937;51.160;4.146;2023-01-15T17:05:53;2.13;;;0.50;;
43345;SDS011;28937;51.160;4.146;2023-01-15T17:08:33;2.47;;;1.02;;
43345;SDS011;28937;51.160;4.146;2023-01-15T17:11:15;1.95;;;0.95;;
43345;SDS011;28937;51.160;4.146;2023-01-15T17:13:46;2.15;;;0.57;;
43345;SDS011;28937;51.160;4.146;2023-01-15T17:18:37;1.35;;;0.50;;
43345;SDS011;28937;51.160;4.146;2023-01-15T17:21:03;4.45;;;0.73;;
43345;SDS011;28937;51.160;4.146;2023-01-15T17:23:33;3.72;;;0.73;;
43345;SDS011;28937;51.160;4.146;2023-01-15T17:26:05;1.48;;;0.63;;
43345;SDS011;28937;51.160;4.146;2023-01-15T17:28:32;6.32;;;0.95;;
43345;SDS011;28937;51.160;4.146;2023-01-15T17:30:59;1.83;;;0.60;;
43345;SDS011;28937;51.160;4.146;2023-01-15T17:33:25;4.60;;;0.77;;
43345;SDS011;28937;51.160;4.146;2023-01-15T17:35:51;5.50;;;0.98;;
43345;SDS011;28937;51.160;4.146;2023-01-15T17:38:18;6.28;;;1.75;;
43345;SDS011;28937;51.160;4.146;2023-01-15T17:40:44;21.23;;;10.55;;
43345;SDS011;28937;51.160;4.146;2023-01-15T17:43:11;28.17;;;13.05;;
43345;SDS011;28937;51.160;4.146;2023-01-15T17:45:39;25.83;;;16.10;;
43345;SDS011;28937;51.160;4.146;2023-01-15T17:48:05;19.52;;;10.98;;
43345;SDS011;28937;51.160;4.146;2023-01-15T17:50:33;9.43;;;4.80;;
43345;SDS011;28937;51.160;4.146;2023-01-15T17:53:02;13.07;;;6.68;;
43345;SDS011;28937;51.160;4.146;2023-01-15T17:55:28;20.98;;;12.68;;
43345;SDS011;28937;51.160;4.146;2023-01-15T17:58:13;9.43;;;3.95;;
43345;SDS011;28937;51.160;4.146;2023-01-15T18:00:58;11.50;;;6.30;;